sensor_id;sensor_type;location;lat;lon;timestamp;P1;durP1;ratioP1;P2;durP2;ratioP2
17052;SDS011;8643;48.824;11.422;2022-08-25T00:00:18;9.65;;;8.23;;
17052;SDS011;8643;48.824;11.422;2022-08-25T00:02:48;13.38;;;8.60;;
17052;SDS011;8643;48.824;11.422;2022-08-25T00:05:22;10.60;;;8.50;;
17052;SDS011;8643;48.824;11.422;2022-08-25T00:07:54;10.95;;;8.93;;
17052;SDS011;8643;48.824;11.422;2022-08-25T00:10:23;10.52;;;7.85;;
17052;SDS011;8643;48.824;11.422;2022-08-25T00:12:52;9.95;;;8.10;;
17052;SDS011;8643;48.824;11.422;2022-08-25T00:15:22;12.68;;;8.18;;
17052;SDS011;8643;48.824;11.422;2022-08-25T00:17:51;10.65;;;8.43;;
17052;SDS011;8643;48.824;11.422;2022-08-25T00:20:19;11.13;;;8.88;;
17052;SDS011;8643;48.824;11.422;2022-08-25T00:22:48;12.48;;;9.13;;
17052;SDS011;8643;48.824;11.422;2022-08-25T00:25:16;14.10;;;8.77;;
17052;SDS011;8643;48.824;11.422;2022-08-25T00:27:45;11.43;;;8.70;;
17052;SDS011;8643;48.824;11.422;2022-08-25T00:30:14;10.13;;;8.27;;
17052;SDS011;8643;48.824;11.422;2022-08-25T00:32:45;9.65;;;8.15;;
17052;SDS011;8643;48.824;11.422;2022-08-25T00:35:23;13.45;;;8.93;;
17052;SDS011;8643;48.824;11.422;2022-08-25T00:37:52;11.25;;;8.52;;
17052;SDS011;8643;48.824;11.422;2022-08-25T00:40:20;10.77;;;8.70;;
17052;SDS011;8643;48.824;11.422;2022-08-25T00:42:49;10.38;;;8.55;;
17052;SDS011;8643;48.824;11.422;2022-08-25T00:45:18;14.00;;;9.10;;
17052;SDS011;8643;48.824;11.422;2022-08-25T00:47:48;14.38;;;8.82;;
17052;SDS011;8643;48.824;11.422;2022-08-25T00:50:17;11.75;;;9.00;;
17052;SDS011;8643;48.824;11.422;2022-08-25T00:52:47;11.15;;;8.95;;
17052;SDS011;8643;48.824;11.422;2022-08-25T00:55:22;12.95;;;8.88;;
17052;SDS011;8643;48.824;11.422;2022-08-25T00:57:56;11.77;;;9.25;;
17052;SDS011;8643;48.824;11.422;2022-08-25T01:00:30;10.52;;;8.30;;
17052;SDS011;8643;48.824;11.422;2022-08-25T01:03:03;11.98;;;9.10;;
17052;SDS011;8643;48.824;11.422;2022-08-25T01:05:33;11.77;;;8.77;;
17052;SDS011;8643;48.824;11.422;2022-08-25T01:08:03;12.50;;;8.95;;
17052;SDS011;8643;48.824;11.422;2022-08-25T01:10:35;10.15;;;8.57;;
17052;SDS011;8643;48.824;11.422;2022-08-25T01:13:08;10.23;;;8.80;;
17052;SDS011;8643;48.824;11.422;2022-08-25T01:15:43;10.05;;;8.40;;
17052;SDS011;8643;48.824;11.422;2022-08-25T01:18:14;12.57;;;8.93;;
17052;SDS011;8643;48.824;11.422;2022-08-25T01:23:16;10.90;;;9.10;;
17052;SDS011;8643;48.824;11.422;2022-08-25T01:25:47;11.60;;;8.90;;
17052;SDS011;8643;48.824;11.422;2022-08-25T01:28:24;11.38;;;8.90;;
17052;SDS011;8643;48.824;11.422;2022-08-25T01:30:53;13.95;;;8.70;;
17052;SDS011;8643;48.824;11.422;2022-08-25T01:33:22;11.10;;;8.98;;
17052;SDS011;8643;48.824;11.422;2022-08-25T01:35:52;13.43;;;9.10;;
17052;SDS011;8643;48.824;11.422;2022-08-25T01:38:21;10.75;;;8.40;;
17052;SDS011;8643;48.824;11.422;2022-08-25T01:40:49;10.57;;;8.57;;
17052;SDS011;8643;48.824;11.422;2022-08-25T01:43:20;12.18;;;8.90;;
17052;SDS011;8643;48.824;11.422;2022-08-25T01:46:02;11.02;;;8.70;;
17052;SDS011;8643;48.824;11.422;2022-08-25T01:48:31;13.75;;;8.80;;
17052;SDS011;8643;48.824;11.422;2022-08-25T01:51:01;12.15;;;8.65;;
17052;SDS011;8643;48.824;11.422;2022-08-25T01:53:29;10.50;;;8.50;;
17052;SDS011;8643;48.824;11.422;2022-08-25T01:55:59;12.55;;;9.23;;
17052;SDS011;8643;48.824;11.422;2022-08-25T01:58:38;10.23;;;8.77;;
17052;SDS011;8643;48.824;11.422;2022-08-25T02:01:09;11.02;;;8.63;;
17052;SDS011;8643;48.824;11.422;2022-08-25T02:03:43;15.15;;;9.02;;
17052;SDS011;8643;48.824;11.422;2022-08-25T02:06:19;13.75;;;8.80;;
17052;SDS011;8643;48.824;11.422;2022-08-25T02:08:54;12.20;;;9.52;;
17052;SDS011;8643;48.824;11.422;2022-08-25T02:11:26;13.80;;;9.75;;
17052;SDS011;8643;48.824;11.422;2022-08-25T02:13:55;13.32;;;8.93;;
17052;SDS011;8643;48.824;11.422;2022-08-25T02:16:25;11.63;;;8.57;;
17052;SDS011;8643;48.824;11.422;2022-08-25T02:18:58;11.52;;;8.77;;
17052;SDS011;8643;48.824;11.422;2022-08-25T02:21:28;13.15;;;8.90;;
17052;SDS011;8643;48.824;11.422;2022-08-25T02:23:57;13.95;;;9.52;;
17052;SDS011;8643;48.824;11.422;2022-08-25T02:26:26;12.30;;;9.10;;
17052;SDS011;8643;48.824;11.422;2022-08-25T02:28:55;11.43;;;9.00;;
17052;SDS011;8643;48.824;11.422;2022-08-25T02:31:24;11.95;;;9.55;;
17052;SDS011;8643;48.824;11.422;2022-08-25T02:33:53;12.88;;;9.15;;
17052;SDS011;8643;48.824;11.422;2022-08-25T02:36:22;13.05;;;9.15;;
17052;SDS011;8643;48.824;11.422;2022-08-25T02:38:52;12.82;;;9.90;;
17052;SDS011;8643;48.824;11.422;2022-08-25T02:41:21;12.10;;;9.27;;
17052;SDS011;8643;48.824;11.422;2022-08-25T02:43:57;11.00;;;9.27;;
17052;SDS011;8643;48.824;11.422;2022-08-25T02:46:26;14.68;;;9.88;;
17052;SDS011;8643;48.824;11.422;2022-08-25T02:48:55;12.07;;;9.18;;
17052;SDS011;8643;48.824;11.422;2022-08-25T02:51:24;13.65;;;9.20;;
17052;SDS011;8643;48.824;11.422;2022-08-25T02:53:58;13.07;;;9.68;;
17052;SDS011;8643;48.824;11.422;2022-08-25T02:56:29;13.40;;;9.48;;
17052;SDS011;8643;48.824;11.422;2022-08-25T02:58:58;24.90;;;9.50;;
17052;SDS011;8643;48.824;11.422;2022-08-25T03:01:28;12.68;;;8.70;;
17052;SDS011;8643;48.824;11.422;2022-08-25T03:03:58;12.55;;;9.15;;
17052;SDS011;8643;48.824;11.422;2022-08-25T03:06:27;13.07;;;9.73;;
17052;SDS011;8643;48.824;11.422;2022-08-25T03:08:57;12.90;;;9.40;;
17052;SDS011;8643;48.824;11.422;2022-08-25T03:11:26;12.52;;;9.35;;
17052;SDS011;8643;48.824;11.422;2022-08-25T03:13:55;12.48;;;9.73;;
17052;SDS011;8643;48.824;11.422;2022-08-25T03:16:24;13.63;;;9.13;;
17052;SDS011;8643;48.824;11.422;2022-08-25T03:18:53;13.57;;;9.48;;
17052;SDS011;8643;48.824;11.422;2022-08-25T03:21:23;12.88;;;9.82;;
17052;SDS011;8643;48.824;11.422;2022-08-25T03:23:52;12.40;;;9.43;;
17052;SDS011;8643;48.824;11.422;2022-08-25T03:26:22;13.60;;;9.95;;
17052;SDS011;8643;48.824;11.422;2022-08-25T03:29:08;14.40;;;9.75;;
17052;SDS011;8643;48.824;11.422;2022-08-25T03:31:37;13.07;;;9.23;;
17052;SDS011;8643;48.824;11.422;2022-08-25T03:34:05;12.73;;;9.30;;
17052;SDS011;8643;48.824;11.422;2022-08-25T03:36:34;12.80;;;9.38;;
17052;SDS011;8643;48.824;11.422;2022-08-25T03:39:03;13.27;;;9.57;;
17052;SDS011;8643;48.824;11.422;2022-08-25T03:41:35;13.40;;;9.95;;
17052;SDS011;8643;48.824;11.422;2022-08-25T03:44:04;12.45;;;9.20;;
17052;SDS011;8643;48.824;11.422;2022-08-25T03:46:36;12.43;;;9.32;;
17052;SDS011;8643;48.824;11.422;2022-08-25T03:49:09;10.90;;;9.02;;
17052;SDS011;8643;48.824;11.422;2022-08-25T03:51:41;10.98;;;9.05;;
17052;SDS011;8643;48.824;11.422;2022-08-25T03:54:13;13.98;;;9.65;;
17052;SDS011;8643;48.824;11.422;2022-08-25T03:56:44;13.57;;;9.75;;
17052;SDS011;8643;48.824;11.422;2022-08-25T03:59:13;14.23;;;9.38;;
17052;SDS011;8643;48.824;11.422;2022-08-25T04:01:42;14.65;;;9.20;;
17052;SDS011;8643;48.824;11.422;2022-08-25T04:04:19;12.38;;;9.68;;
17052;SDS011;8643;48.824;11.422;2022-08-25T04:06:47;15.30;;;9.75;;
17052;SDS011;8643;48.824;11.422;2022-08-25T04:09:16;13.55;;;10.23;;
17052;SDS011;8643;48.824;11.422;2022-08-25T04:11:46;14.25;;;10.25;;
17052;SDS011;8643;48.824;11.422;2022-08-25T04:14:18;13.95;;;10.43;;
17052;SDS011;8643;48.824;11.422;2022-08-25T04:16:49;13.38;;;9.77;;
17052;SDS011;8643;48.824;11.422;2022-08-25T04:19:19;13.10;;;10.35;;
17052;SDS011;8643;48.824;11.422;2022-08-25T04:21:48;13.45;;;9.73;;
17052;SDS011;8643;48.824;11.422;2022-08-25T04:24:22;12.98;;;10.23;;
17052;SDS011;8643;48.824;11.422;2022-08-25T04:26:51;14.07;;;10.52;;
17052;SDS011;8643;48.824;11.422;2022-08-25T04:29:21;14.23;;;10.80;;
17052;SDS011;8643;48.824;11.422;2022-08-25T04:31:51;13.02;;;9.95;;
17052;SDS011;8643;48.824;11.422;2022-08-25T04:34:22;14.05;;;9.98;;
17052;SDS011;8643;48.824;11.422;2022-08-25T04:36:57;13.40;;;9.63;;
17052;SDS011;8643;48.824;11.422;2022-08-25T04:39:28;13.27;;;10.32;;
17052;SDS011;8643;48.824;11.422;2022-08-25T04:41:59;14.70;;;10.18;;
17052;SDS011;8643;48.824;11.422;2022-08-25T04:44:27;15.40;;;9.70;;
17052;SDS011;8643;48.824;11.422;2022-08-25T04:46:57;16.52;;;9.82;;
17052;SDS011;8643;48.824;11.422;2022-08-25T04:49:26;14.80;;;10.18;;
17052;SDS011;8643;48.824;11.422;2022-08-25T04:51:55;14.20;;;9.75;;
17052;SDS011;8643;48.824;11.422;2022-08-25T04:54:24;13.07;;;10.23;;
17052;SDS011;8643;48.824;11.422;2022-08-25T04:56:53;13.23;;;9.88;;
17052;SDS011;8643;48.824;11.422;2022-08-25T04:59:25;14.48;;;9.95;;
17052;SDS011;8643;48.824;11.422;2022-08-25T05:01:56;13.80;;;9.88;;
17052;SDS011;8643;48.824;11.422;2022-08-25T05:04:28;13.52;;;10.07;;
17052;SDS011;8643;48.824;11.422;2022-08-25T05:06:58;16.02;;;10.43;;
17052;SDS011;8643;48.824;11.422;2022-08-25T05:09:27;14.35;;;10.10;;
17052;SDS011;8643;48.824;11.422;2022-08-25T05:11:58;13.05;;;9.68;;
17052;SDS011;8643;48.824;11.422;2022-08-25T05:14:29;13.32;;;9.73;;
17052;SDS011;8643;48.824;11.422;2022-08-25T05:16:59;13.38;;;10.18;;
17052;SDS011;8643;48.824;11.422;2022-08-25T05:19:28;13.13;;;9.80;;
17052;SDS011;8643;48.824;11.422;2022-08-25T05:21:56;11.90;;;8.90;;
17052;SDS011;8643;48.824;11.422;2022-08-25T05:24:25;11.73;;;8.73;;
17052;SDS011;8643;48.824;11.422;2022-08-25T05:26:55;13.60;;;9.23;;
17052;SDS011;8643;48.824;11.422;2022-08-25T05:29:24;12.27;;;9.32;;
17052;SDS011;8643;48.824;11.422;2022-08-25T05:31:54;11.00;;;8.88;;
17052;SDS011;8643;48.824;11.422;2022-08-25T05:34:23;13.45;;;9.10;;
17052;SDS011;8643;48.824;11.422;2022-08-25T05:36:51;15.02;;;9.13;;
17052;SDS011;8643;48.824;11.422;2022-08-25T05:39:19;10.80;;;8.55;;
17052;SDS011;8643;48.824;11.422;2022-08-25T05:41:49;12.95;;;9.02;;
17052;SDS011;8643;48.824;11.422;2022-08-25T05:44:18;10.18;;;8.57;;
17052;SDS011;8643;48.824;11.422;2022-08-25T05:46:47;11.02;;;8.50;;
17052;SDS011;8643;48.824;11.422;2022-08-25T05:49:17;11.50;;;8.70;;
17052;SDS011;8643;48.824;11.422;2022-08-25T05:51:46;11.45;;;8.50;;
17052;SDS011;8643;48.824;11.422;2022-08-25T05:54:14;10.05;;;7.82;;
17052;SDS011;8643;48.824;11.422;2022-08-25T05:56:43;9.45;;;7.93;;
17052;SDS011;8643;48.824;11.422;2022-08-25T05:59:11;10.23;;;8.10;;
17052;SDS011;8643;48.824;11.422;2022-08-25T06:01:40;9.50;;;7.85;;
17052;SDS011;8643;48.824;11.422;2022-08-25T06:04:27;9.82;;;8.00;;
17052;SDS011;8643;48.824;11.422;2022-08-25T06:06:55;10.68;;;8.20;;
17052;SDS011;8643;48.824;11.422;2022-08-25T06:09:24;10.13;;;8.15;;
17052;SDS011;8643;48.824;11.422;2022-08-25T06:11:53;10.07;;;8.23;;
17052;SDS011;8643;48.824;11.422;2022-08-25T06:14:21;9.18;;;7.53;;
17052;SDS011;8643;48.824;11.422;2022-08-25T06:16:50;11.10;;;8.35;;
17052;SDS011;8643;48.824;11.422;2022-08-25T06:19:19;9.38;;;7.97;;
17052;SDS011;8643;48.824;11.422;2022-08-25T06:21:52;8.45;;;7.00;;
17052;SDS011;8643;48.824;11.422;2022-08-25T06:24:22;9.50;;;7.80;;
17052;SDS011;8643;48.824;11.422;2022-08-25T06:26:51;9.45;;;7.57;;
17052;SDS011;8643;48.824;11.422;2022-08-25T06:29:20;9.38;;;7.13;;
17052;SDS011;8643;48.824;11.422;2022-08-25T06:31:48;10.15;;;7.47;;
17052;SDS011;8643;48.824;11.422;2022-08-25T06:34:17;9.60;;;7.68;;
17052;SDS011;8643;48.824;11.422;2022-08-25T06:36:49;9.43;;;7.28;;
17052;SDS011;8643;48.824;11.422;2022-08-25T06:39:19;9.88;;;7.28;;
17052;SDS011;8643;48.824;11.422;2022-08-25T06:41:49;9.85;;;6.70;;
17052;SDS011;8643;48.824;11.422;2022-08-25T06:44:19;7.85;;;7.05;;
17052;SDS011;8643;48.824;11.422;2022-08-25T06:46:48;8.38;;;7.35;;
17052;SDS011;8643;48.824;11.422;2022-08-25T06:49:17;8.35;;;6.72;;
17052;SDS011;8643;48.824;11.422;2022-08-25T06:51:47;7.90;;;7.07;;
17052;SDS011;8643;48.824;11.422;2022-08-25T06:54:16;8.55;;;6.85;;
17052;SDS011;8643;48.824;11.422;2022-08-25T06:56:45;8.48;;;7.05;;
17052;SDS011;8643;48.824;11.422;2022-08-25T06:59:15;8.70;;;7.07;;
17052;SDS011;8643;48.824;11.422;2022-08-25T07:01:44;7.88;;;7.07;;
17052;SDS011;8643;48.824;11.422;2022-08-25T07:04:15;10.15;;;7.10;;
17052;SDS011;8643;48.824;11.422;2022-08-25T07:06:45;9.07;;;6.75;;
17052;SDS011;8643;48.824;11.422;2022-08-25T07:09:14;9.30;;;7.13;;
17052;SDS011;8643;48.824;11.422;2022-08-25T07:11:43;9.57;;;7.03;;
17052;SDS011;8643;48.824;11.422;2022-08-25T07:14:14;9.05;;;7.75;;
17052;SDS011;8643;48.824;11.422;2022-08-25T07:16:45;8.77;;;7.00;;
17052;SDS011;8643;48.824;11.422;2022-08-25T07:19:15;9.80;;;7.20;;
17052;SDS011;8643;48.824;11.422;2022-08-25T07:21:48;11.07;;;6.93;;
17052;SDS011;8643;48.824;11.422;2022-08-25T07:24:20;7.82;;;7.03;;
17052;SDS011;8643;48.824;11.422;2022-08-25T07:26:50;7.88;;;7.03;;
17052;SDS011;8643;48.824;11.422;2022-08-25T07:29:19;9.68;;;7.80;;
17052;SDS011;8643;48.824;11.422;2022-08-25T07:31:58;8.95;;;7.40;;
17052;SDS011;8643;48.824;11.422;2022-08-25T07:34:27;13.15;;;7.70;;
17052;SDS011;8643;48.824;11.422;2022-08-25T07:37:18;10.70;;;7.50;;
17052;SDS011;8643;48.824;11.422;2022-08-25T07:40:09;10.48;;;7.72;;
17052;SDS011;8643;48.824;11.422;2022-08-25T07:42:42;11.45;;;8.23;;
17052;SDS011;8643;48.824;11.422;2022-08-25T07:45:11;9.43;;;7.95;;
17052;SDS011;8643;48.824;11.422;2022-08-25T07:47:46;8.88;;;7.88;;
17052;SDS011;8643;48.824;11.422;2022-08-25T07:50:17;9.20;;;7.85;;
17052;SDS011;8643;48.824;11.422;2022-08-25T07:52:46;9.65;;;7.60;;
17052;SDS011;8643;48.824;11.422;2022-08-25T07:55:20;10.15;;;7.45;;
17052;SDS011;8643;48.824;11.422;2022-08-25T07:57:51;8.82;;;7.20;;
17052;SDS011;8643;48.824;11.422;2022-08-25T08:00:23;9.75;;;7.15;;
17052;SDS011;8643;48.824;11.422;2022-08-25T08:02:55;10.07;;;7.55;;
17052;SDS011;8643;48.824;11.422;2022-08-25T08:05:24;8.93;;;7.25;;
17052;SDS011;8643;48.824;11.422;2022-08-25T08:07:55;8.93;;;7.20;;
17052;SDS011;8643;48.824;11.422;2022-08-25T08:10:25;9.50;;;7.05;;
17052;SDS011;8643;48.824;11.422;2022-08-25T08:13:15;9.90;;;8.00;;
17052;SDS011;8643;48.824;11.422;2022-08-25T08:15:46;9.45;;;8.13;;
17052;SDS011;8643;48.824;11.422;2022-08-25T08:18:14;10.80;;;8.32;;
17052;SDS011;8643;48.824;11.422;2022-08-25T08:20:44;15.82;;;8.20;;
17052;SDS011;8643;48.824;11.422;2022-08-25T08:23:15;10.20;;;7.60;;
17052;SDS011;8643;48.824;11.422;2022-08-25T08:25:44;11.23;;;8.20;;
17052;SDS011;8643;48.824;11.422;2022-08-25T08:28:14;11.18;;;8.50;;
17052;SDS011;8643;48.824;11.422;2022-08-25T08:30:42;12.25;;;8.02;;
17052;SDS011;8643;48.824;11.422;2022-08-25T08:33:20;12.27;;;7.82;;
17052;SDS011;8643;48.824;11.422;2022-08-25T08:35:57;10.55;;;7.90;;
17052;SDS011;8643;48.824;11.422;2022-08-25T08:38:30;8.65;;;7.13;;
17052;SDS011;8643;48.824;11.422;2022-08-25T08:41:02;13.70;;;7.57;;
17052;SDS011;8643;48.824;11.422;2022-08-25T08:44:30;13.68;;;8.30;;
17052;SDS011;8643;48.824;11.422;2022-08-25T08:47:17;10.93;;;7.70;;
17052;SDS011;8643;48.824;11.422;2022-08-25T08:49:57;11.23;;;7.97;;
17052;SDS011;8643;48.824;11.422;2022-08-25T08:52:35;10.65;;;7.68;;
17052;SDS011;8643;48.824;11.422;2022-08-25T08:55:17;12.10;;;8.13;;
17052;SDS011;8643;48.824;11.422;2022-08-25T08:57:54;9.18;;;7.65;;
17052;SDS011;8643;48.824;11.422;2022-08-25T09:00:27;14.70;;;7.80;;
17052;SDS011;8643;48.824;11.422;2022-08-25T09:03:05;8.80;;;7.90;;
17052;SDS011;8643;48.824;11.422;2022-08-25T09:05:40;11.10;;;8.20;;
17052;SDS011;8643;48.824;11.422;2022-08-25T09:08:14;12.60;;;8.43;;
17052;SDS011;8643;48.824;11.422;2022-08-25T09:10:51;11.27;;;8.65;;
17052;SDS011;8643;48.824;11.422;2022-08-25T09:13:33;13.07;;;8.40;;
17052;SDS011;8643;48.824;11.422;2022-08-25T09:16:23;12.80;;;8.40;;
17052;SDS011;8643;48.824;11.422;2022-08-25T09:19:27;10.80;;;7.53;;
17052;SDS011;8643;48.824;11.422;2022-08-25T09:22:17;13.30;;;8.25;;
17052;SDS011;8643;48.824;11.422;2022-08-25T09:25:06;9.70;;;8.00;;
17052;SDS011;8643;48.824;11.422;2022-08-25T09:28:02;10.63;;;8.00;;
17052;SDS011;8643;48.824;11.422;2022-08-25T09:30:39;12.50;;;8.07;;
17052;SDS011;8643;48.824;11.422;2022-08-25T09:33:19;10.80;;;7.63;;
17052;SDS011;8643;48.824;11.422;2022-08-25T09:35:52;13.70;;;8.05;;
17052;SDS011;8643;48.824;11.422;2022-08-25T09:38:23;10.25;;;7.50;;
17052;SDS011;8643;48.824;11.422;2022-08-25T09:40:55;13.18;;;7.75;;
17052;SDS011;8643;48.824;11.422;2022-08-25T09:43:29;10.38;;;7.18;;
17052;SDS011;8643;48.824;11.422;2022-08-25T09:46:01;10.88;;;7.45;;
17052;SDS011;8643;48.824;11.422;2022-08-25T09:48:43;11.00;;;7.95;;
17052;SDS011;8643;48.824;11.422;2022-08-25T09:51:23;10.55;;;8.10;;
17052;SDS011;8643;48.824;11.422;2022-08-25T09:54:15;10.95;;;8.50;;
17052;SDS011;8643;48.824;11.422;2022-08-25T09:57:09;13.82;;;8.10;;
17052;SDS011;8643;48.824;11.422;2022-08-25T10:00:08;10.98;;;8.20;;
17052;SDS011;8643;48.824;11.422;2022-08-25T10:02:44;12.35;;;8.05;;
17052;SDS011;8643;48.824;11.422;2022-08-25T10:05:36;13.75;;;8.18;;
17052;SDS011;8643;48.824;11.422;2022-08-25T10:08:25;11.77;;;8.15;;
17052;SDS011;8643;48.824;11.422;2022-08-25T10:10:59;13.15;;;8.02;;
17052;SDS011;8643;48.824;11.422;2022-08-25T10:13:35;14.13;;;8.05;;
17052;SDS011;8643;48.824;11.422;2022-08-25T10:16:10;14.65;;;8.90;;
17052;SDS011;8643;48.824;11.422;2022-08-25T10:19:04;13.00;;;7.88;;
17052;SDS011;8643;48.824;11.422;2022-08-25T10:21:37;13.85;;;8.43;;
17052;SDS011;8643;48.824;11.422;2022-08-25T10:24:09;11.27;;;8.23;;
17052;SDS011;8643;48.824;11.422;2022-08-25T10:26:43;14.20;;;7.90;;
17052;SDS011;8643;48.824;11.422;2022-08-25T10:29:27;12.65;;;7.53;;
17052;SDS011;8643;48.824;11.422;2022-08-25T10:32:21;13.63;;;8.10;;
17052;SDS011;8643;48.824;11.422;2022-08-25T10:35:08;13.77;;;8.52;;
17052;SDS011;8643;48.824;11.422;2022-08-25T10:37:46;16.73;;;8.57;;
17052;SDS011;8643;48.824;11.422;2022-08-25T10:40:32;12.55;;;7.45;;
17052;SDS011;8643;48.824;11.422;2022-08-25T10:43:18;16.33;;;7.70;;
17052;SDS011;8643;48.824;11.422;2022-08-25T10:46:01;13.82;;;8.32;;
17052;SDS011;8643;48.824;11.422;2022-08-25T10:48:49;12.50;;;7.68;;
17052;SDS011;8643;48.824;11.422;2022-08-25T10:51:37;16.33;;;7.43;;
17052;SDS011;8643;48.824;11.422;2022-08-25T10:54:22;12.35;;;7.45;;
17052;SDS011;8643;48.824;11.422;2022-08-25T10:57:05;22.30;;;8.95;;
17052;SDS011;8643;48.824;11.422;2022-08-25T10:59:49;19.33;;;8.10;;
17052;SDS011;8643;48.824;11.422;2022-08-25T11:02:31;13.32;;;7.65;;
17052;SDS011;8643;48.824;11.422;2022-08-25T11:05:52;13.52;;;7.53;;
17052;SDS011;8643;48.824;11.422;2022-08-25T11:08:30;14.68;;;8.30;;
17052;SDS011;8643;48.824;11.422;2022-08-25T11:11:06;17.67;;;8.27;;
17052;SDS011;8643;48.824;11.422;2022-08-25T11:13:47;17.45;;;7.78;;
17052;SDS011;8643;48.824;11.422;2022-08-25T11:16:20;23.38;;;8.02;;
17052;SDS011;8643;48.824;11.422;2022-08-25T11:19:06;15.88;;;8.15;;
17052;SDS011;8643;48.824;11.422;2022-08-25T11:21:47;17.45;;;8.38;;
17052;SDS011;8643;48.824;11.422;2022-08-25T11:24:34;15.68;;;8.13;;
17052;SDS011;8643;48.824;11.422;2022-08-25T11:27:16;19.10;;;8.38;;
17052;SDS011;8643;48.824;11.422;2022-08-25T11:29:53;21.80;;;8.82;;
17052;SDS011;8643;48.824;11.422;2022-08-25T11:32:32;15.93;;;8.18;;
17052;SDS011;8643;48.824;11.422;2022-08-25T11:35:03;19.13;;;8.68;;
17052;SDS011;8643;48.824;11.422;2022-08-25T11:37:40;17.75;;;8.50;;
17052;SDS011;8643;48.824;11.422;2022-08-25T11:40:30;14.52;;;8.27;;
17052;SDS011;8643;48.824;11.422;2022-08-25T11:43:24;23.30;;;8.52;;
17052;SDS011;8643;48.824;11.422;2022-08-25T11:46:14;17.38;;;8.60;;
17052;SDS011;8643;48.824;11.422;2022-08-25T11:48:59;22.40;;;8.32;;
17052;SDS011;8643;48.824;11.422;2022-08-25T11:51:52;17.17;;;7.97;;
17052;SDS011;8643;48.824;11.422;2022-08-25T11:54:28;19.35;;;8.38;;
17052;SDS011;8643;48.824;11.422;2022-08-25T11:57:07;19.80;;;8.43;;
17052;SDS011;8643;48.824;11.422;2022-08-25T12:00:03;18.13;;;9.20;;
17052;SDS011;8643;48.824;11.422;2022-08-25T12:02:39;18.08;;;8.00;;
17052;SDS011;8643;48.824;11.422;2022-08-25T12:11:42;22.58;;;9.30;;
17052;SDS011;8643;48.824;11.422;2022-08-25T12:14:36;16.75;;;9.10;;
17052;SDS011;8643;48.824;11.422;2022-08-25T12:17:25;25.00;;;9.00;;
17052;SDS011;8643;48.824;11.422;2022-08-25T12:20:05;24.65;;;8.88;;
17052;SDS011;8643;48.824;11.422;2022-08-25T12:22:39;18.88;;;8.25;;
17052;SDS011;8643;48.824;11.422;2022-08-25T12:25:29;22.63;;;9.25;;
17052;SDS011;8643;48.824;11.422;2022-08-25T12:28:21;19.20;;;8.48;;
17052;SDS011;8643;48.824;11.422;2022-08-25T12:31:22;18.70;;;8.50;;
17052;SDS011;8643;48.824;11.422;2022-08-25T12:34:13;18.80;;;8.55;;
17052;SDS011;8643;48.824;11.422;2022-08-25T12:37:11;24.70;;;8.73;;
17052;SDS011;8643;48.824;11.422;2022-08-25T12:39:44;22.85;;;8.90;;
17052;SDS011;8643;48.824;11.422;2022-08-25T12:42:28;27.67;;;8.93;;
17052;SDS011;8643;48.824;11.422;2022-08-25T12:45:09;24.02;;;8.32;;
17052;SDS011;8643;48.824;11.422;2022-08-25T12:51:25;29.58;;;10.57;;
17052;SDS011;8643;48.824;11.422;2022-08-25T12:54:15;31.02;;;10.15;;
17052;SDS011;8643;48.824;11.422;2022-08-25T12:56:51;21.35;;;8.90;;
17052;SDS011;8643;48.824;11.422;2022-08-25T12:59:30;21.90;;;9.95;;
17052;SDS011;8643;48.824;11.422;2022-08-25T13:02:11;28.45;;;9.48;;
17052;SDS011;8643;48.824;11.422;2022-08-25T13:08:44;26.00;;;9.43;;
17052;SDS011;8643;48.824;11.422;2022-08-25T13:11:38;22.48;;;8.60;;
17052;SDS011;8643;48.824;11.422;2022-08-25T13:14:15;24.00;;;8.55;;
17052;SDS011;8643;48.824;11.422;2022-08-25T13:16:53;25.38;;;8.27;;
17052;SDS011;8643;48.824;11.422;2022-08-25T13:19:24;19.38;;;8.25;;
17052;SDS011;8643;48.824;11.422;2022-08-25T13:22:02;28.38;;;8.60;;
17052;SDS011;8643;48.824;11.422;2022-08-25T13:24:45;29.13;;;8.82;;
17052;SDS011;8643;48.824;11.422;2022-08-25T13:27:19;27.73;;;8.75;;
17052;SDS011;8643;48.824;11.422;2022-08-25T13:29:53;19.00;;;8.10;;
17052;SDS011;8643;48.824;11.422;2022-08-25T13:32:30;30.02;;;8.98;;
17052;SDS011;8643;48.824;11.422;2022-08-25T13:35:09;20.48;;;8.25;;
17052;SDS011;8643;48.824;11.422;2022-08-25T13:37:45;27.50;;;8.27;;
17052;SDS011;8643;48.824;11.422;2022-08-25T13:40:15;19.00;;;8.18;;
17052;SDS011;8643;48.824;11.422;2022-08-25T13:42:53;24.50;;;8.27;;
17052;SDS011;8643;48.824;11.422;2022-08-25T13:45:32;17.73;;;7.63;;
17052;SDS011;8643;48.824;11.422;2022-08-25T13:48:07;24.77;;;8.82;;
17052;SDS011;8643;48.824;11.422;2022-08-25T13:50:51;26.30;;;8.25;;
17052;SDS011;8643;48.824;11.422;2022-08-25T13:53:36;23.70;;;8.02;;
17052;SDS011;8643;48.824;11.422;2022-08-25T13:56:06;18.42;;;7.47;;
17052;SDS011;8643;48.824;11.422;2022-08-25T13:58:37;22.73;;;7.80;;
17052;SDS011;8643;48.824;11.422;2022-08-25T14:01:12;19.05;;;7.63;;
17052;SDS011;8643;48.824;11.422;2022-08-25T14:07:04;25.13;;;8.68;;
17052;SDS011;8643;48.824;11.422;2022-08-25T14:09:46;20.52;;;7.90;;
17052;SDS011;8643;48.824;11.422;2022-08-25T14:12:29;27.58;;;7.90;;
17052;SDS011;8643;48.824;11.422;2022-08-25T14:15:09;23.83;;;8.10;;
17052;SDS011;8643;48.824;11.422;2022-08-25T14:18:02;23.25;;;7.90;;
17052;SDS011;8643;48.824;11.422;2022-08-25T14:20:34;19.35;;;7.95;;
17052;SDS011;8643;48.824;11.422;2022-08-25T14:23:08;24.38;;;7.85;;
17052;SDS011;8643;48.824;11.422;2022-08-25T14:25:44;23.60;;;8.13;;
17052;SDS011;8643;48.824;11.422;2022-08-25T14:28:16;17.05;;;7.80;;
17052;SDS011;8643;48.824;11.422;2022-08-25T14:30:48;20.42;;;7.75;;
17052;SDS011;8643;48.824;11.422;2022-08-25T14:33:21;21.73;;;7.72;;
17052;SDS011;8643;48.824;11.422;2022-08-25T14:35:56;22.77;;;8.07;;
17052;SDS011;8643;48.824;11.422;2022-08-25T14:38:27;25.45;;;7.90;;
17052;SDS011;8643;48.824;11.422;2022-08-25T14:40:56;29.80;;;7.78;;
17052;SDS011;8643;48.824;11.422;2022-08-25T14:43:26;24.40;;;7.72;;
17052;SDS011;8643;48.824;11.422;2022-08-25T14:45:57;23.48;;;8.18;;
17052;SDS011;8643;48.824;11.422;2022-08-25T14:48:30;22.90;;;7.72;;
17052;SDS011;8643;48.824;11.422;2022-08-25T14:51:04;27.65;;;8.13;;
17052;SDS011;8643;48.824;11.422;2022-08-25T14:53:33;23.13;;;8.40;;
17052;SDS011;8643;48.824;11.422;2022-08-25T14:56:02;21.60;;;7.82;;
17052;SDS011;8643;48.824;11.422;2022-08-25T14:58:36;22.30;;;7.43;;
17052;SDS011;8643;48.824;11.422;2022-08-25T15:01:17;22.92;;;8.38;;
17052;SDS011;8643;48.824;11.422;2022-08-25T15:03:56;22.15;;;7.80;;
17052;SDS011;8643;48.824;11.422;2022-08-25T15:06:29;16.35;;;7.35;;
17052;SDS011;8643;48.824;11.422;2022-08-25T15:09:00;24.25;;;8.05;;
17052;SDS011;8643;48.824;11.422;2022-08-25T15:11:37;20.27;;;7.72;;
17052;SDS011;8643;48.824;11.422;2022-08-25T15:14:10;22.63;;;8.02;;
17052;SDS011;8643;48.824;11.422;2022-08-25T15:16:41;27.75;;;8.63;;
17052;SDS011;8643;48.824;11.422;2022-08-25T15:19:15;24.67;;;8.38;;
17052;SDS011;8643;48.824;11.422;2022-08-25T15:21:48;24.13;;;8.00;;
17052;SDS011;8643;48.824;11.422;2022-08-25T15:24:19;25.13;;;8.40;;
17052;SDS011;8643;48.824;11.422;2022-08-25T15:26:52;22.88;;;7.35;;
17052;SDS011;8643;48.824;11.422;2022-08-25T15:29:24;19.00;;;7.82;;
17052;SDS011;8643;48.824;11.422;2022-08-25T15:31:56;23.75;;;7.90;;
17052;SDS011;8643;48.824;11.422;2022-08-25T15:34:26;21.10;;;8.05;;
17052;SDS011;8643;48.824;11.422;2022-08-25T15:36:54;20.70;;;7.93;;
17052;SDS011;8643;48.824;11.422;2022-08-25T15:39:24;18.58;;;7.57;;